Time;durP1;ratioP1;P1;durP2;ratioP2;P2;SDS_P1;SDS_P2;PMS_P1;PMS_P2;Temp;Humidity;BMP_temperature;BMP_pressure;BME280_temperature;BME280_humidity;BME280_pressure;Samples;Min_cycle;Max_cycle;Signal;HPM_P1;HPM_P2
2021/09/05 00:00:43;;;;;;;9.95;5.22;;;;;;;;;;5093548;28;20433;-75
2021/09/05 00:03:09;;;;;;;7.18;4.97;;;;;;;;;;5093559;28;20020;-75
2021/09/05 00:05:35;;;;;;;5.85;4.80;;;;;;;;;;5093512;28;20035;-75
2021/09/05 00:08:01;;;;;;;8.35;5.30;;;;;;;;;;5092048;28;20032;-75
2021/09/05 00:10:28;;;;;;;5.90;4.80;;;;;;;;;;5093408;28;20028;-75
2021/09/05 00:12:54;;;;;;;6.18;5.03;;;;;;;;;;5093414;28;20024;-75
2021/09/05 00:15:20;;;;;;;6.63;5.00;;;;;;;;;;5093467;28;20478;-75
2021/09/05 00:17:46;;;;;;;7.10;5.60;;;;;;;;;;5093524;28;20056;-75
2021/09/05 00:20:12;;;;;;;6.05;4.65;;;;;;;;;;5092099;28;20028;-75
2021/09/05 00:22:38;;;;;;;5.68;4.75;;;;;;;;;;5093507;28;20061;-75
2021/09/05 00:25:05;;;;;;;5.18;4.68;;;;;;;;;;5094481;28;20107;-75
2021/09/05 00:27:31;;;;;;;6.88;5.28;;;;;;;;;;5097602;28;20487;-75
2021/09/05 00:29:57;;;;;;;6.15;4.82;;;;;;;;;;5097400;28;20107;-75
2021/09/05 00:32:23;;;;;;;6.82;4.93;;;;;;;;;;5097609;28;20028;-75
2021/09/05 00:34:49;;;;;;;8.52;4.82;;;;;;;;;;5097304;28;20669;-75
2021/09/05 00:37:16;;;;;;;5.22;4.50;;;;;;;;;;5097579;28;20094;-75
2021/09/05 00:39:42;;;;;;;6.05;4.25;;;;;;;;;;5095798;28;20052;-75
2021/09/05 00:42:08;;;;;;;7.07;4.63;;;;;;;;;;5097165;28;20079;-74
2021/09/05 00:44:34;;;;;;;5.40;4.90;;;;;;;;;;5097247;28;20434;-75
2021/09/05 00:47:00;;;;;;;5.75;4.00;;;;;;;;;;5097111;28;20036;-75
2021/09/05 00:49:26;;;;;;;5.82;5.22;;;;;;;;;;5097090;28;20036;-74
2021/09/05 00:51:53;;;;;;;5.82;4.65;;;;;;;;;;5097099;28;20035;-75
2021/09/05 00:54:19;;;;;;;10.60;4.57;;;;;;;;;;5096889;28;20023;-75
2021/09/05 00:56:45;;;;;;;9.52;5.32;;;;;;;;;;5097051;28;20056;-75
2021/09/05 00:59:16;;;;;;;5.38;4.65;;;;;;;;;;5096839;28;20049;-75
2021/09/05 01:01:43;;;;;;;5.93;5.07;;;;;;;;;;5096774;28;20115;-75
2021/09/05 01:04:09;;;;;;;5.95;5.05;;;;;;;;;;5096862;28;20473;-75
2021/09/05 01:06:36;;;;;;;8.43;6.00;;;;;;;;;;5096811;28;20031;-75
2021/09/05 01:09:02;;;;;;;6.32;5.22;;;;;;;;;;5096688;28;20103;-75
2021/09/05 01:11:29;;;;;;;6.63;4.55;;;;;;;;;;5096722;28;20032;-74
2021/09/05 01:13:55;;;;;;;6.97;4.70;;;;;;;;;;5096541;28;20020;-74
2021/09/05 01:16:32;;;;;;;5.43;4.22;;;;;;;;;;5096469;28;20489;-74
2021/09/05 01:19:09;;;;;;;8.40;4.63;;;;;;;;;;5095350;28;20494;-74
2021/09/05 01:21:35;;;;;;;6.07;4.30;;;;;;;;;;5096471;28;20036;-74
2021/09/05 01:24:02;;;;;;;5.25;4.50;;;;;;;;;;5096390;28;20501;-75
2021/09/05 01:26:29;;;;;;;6.75;4.30;;;;;;;;;;5096387;28;20032;-74
2021/09/05 01:28:55;;;;;;;7.30;4.68;;;;;;;;;;5096204;28;20475;-75
2021/09/05 01:31:22;;;;;;;5.13;4.43;;;;;;;;;;5096215;28;20109;-74
2021/09/05 01:33:49;;;;;;;5.95;5.03;;;;;;;;;;5096260;28;20077;-74
2021/09/05 01:36:15;;;;;;;5.53;4.30;;;;;;;;;;5095299;28;20032;-74
2021/09/05 01:38:41;;;;;;;5.53;4.55;;;;;;;;;;5095694;28;20391;-74
2021/09/05 01:41:07;;;;;;;5.90;4.90;;;;;;;;;;5096014;28;20078;-74
2021/09/05 01:43:33;;;;;;;7.20;5.28;;;;;;;;;;5096072;28;20038;-75
2021/09/05 01:46:00;;;;;;;5.00;4.50;;;;;;;;;;5096220;28;20433;-74
2021/09/05 01:48:26;;;;;;;5.20;4.70;;;;;;;;;;5095961;28;20034;-75
2021/09/05 01:50:52;;;;;;;6.78;5.07;;;;;;;;;;5095868;28;20471;-75
2021/09/05 01:53:18;;;;;;;7.72;5.30;;;;;;;;;;5095794;28;20051;-75
2021/09/05 01:55:44;;;;;;;6.43;5.70;;;;;;;;;;5095855;28;20471;-74
2021/09/05 01:58:10;;;;;;;5.53;4.32;;;;;;;;;;5095713;28;20020;-75
2021/09/05 02:00:36;;;;;;;6.05;4.78;;;;;;;;;;5095588;28;20614;-75
2021/09/05 02:03:03;;;;;;;5.28;4.75;;;;;;;;;;5095611;28;20513;-75
2021/09/05 02:05:29;;;;;;;6.47;4.72;;;;;;;;;;5095700;28;20532;-75
2021/09/05 02:07:55;;;;;;;6.35;5.18;;;;;;;;;;5095495;28;20039;-75
2021/09/05 02:10:21;;;;;;;7.32;5.55;;;;;;;;;;5095472;28;20020;-75
2021/09/05 02:12:47;;;;;;;6.70;5.07;;;;;;;;;;5095443;28;20031;-75
2021/09/05 02:15:13;;;;;;;6.63;4.57;;;;;;;;;;5095575;28;20082;-75
2021/09/05 02:17:39;;;;;;;5.75;4.60;;;;;;;;;;5095419;28;20024;-75
2021/09/05 02:20:06;;;;;;;5.65;4.10;;;;;;;;;;5095311;28;20138;-75
2021/09/05 02:22:32;;;;;;;5.40;4.30;;;;;;;;;;5093936;28;20367;-75
2021/09/05 02:24:58;;;;;;;4.88;4.22;;;;;;;;;;5095216;28;20024;-74
2021/09/05 02:27:24;;;;;;;4.63;3.80;;;;;;;;;;5095342;28;20109;-75
2021/09/05 02:29:50;;;;;;;4.22;3.78;;;;;;;;;;5095242;28;20098;-74
2021/09/05 02:32:16;;;;;;;6.70;3.95;;;;;;;;;;5095173;28;20028;-74
2021/09/05 02:34:42;;;;;;;5.65;3.63;;;;;;;;;;5095064;28;20027;-75
2021/09/05 02:37:10;;;;;;;4.68;4.20;;;;;;;;;;5093715;28;20078;-75
2021/09/05 02:39:36;;;;;;;5.68;3.92;;;;;;;;;;5094933;28;20101;-75
2021/09/05 02:42:02;;;;;;;9.98;4.30;;;;;;;;;;5094683;28;20375;-75
2021/09/05 02:44:28;;;;;;;6.82;4.68;;;;;;;;;;5094944;28;20093;-75
2021/09/05 02:46:54;;;;;;;6.95;4.70;;;;;;;;;;5095050;28;20024;-74
2021/09/05 02:49:20;;;;;;;5.65;4.60;;;;;;;;;;5094412;28;20429;-75
2021/09/05 02:51:46;;;;;;;6.38;5.00;;;;;;;;;;5094685;28;20024;-75
2021/09/05 02:54:12;;;;;;;5.70;4.63;;;;;;;;;;5094654;28;20028;-75
2021/09/05 02:56:39;;;;;;;6.28;5.00;;;;;;;;;;5094604;28;20110;-75
2021/09/05 02:59:05;;;;;;;4.38;3.97;;;;;;;;;;5094698;28;20024;-74
2021/09/05 03:01:31;;;;;;;6.00;4.55;;;;;;;;;;5094499;28;20040;-75
2021/09/05 03:03:57;;;;;;;4.95;4.35;;;;;;;;;;5094455;28;20043;-75
2021/09/05 03:06:23;;;;;;;7.35;4.35;;;;;;;;;;5094428;28;20467;-75
2021/09/05 03:08:49;;;;;;;5.32;4.50;;;;;;;;;;5094264;28;20031;-75
2021/09/05 03:11:15;;;;;;;5.25;4.75;;;;;;;;;;5094397;28;20024;-75
2021/09/05 03:13:45;;;;;;;6.47;4.75;;;;;;;;;;5094317;28;20479;-75
2021/09/05 03:16:11;;;;;;;6.32;5.30;;;;;;;;;;5094311;28;20379;-75
2021/09/05 03:18:37;;;;;;;6.28;5.68;;;;;;;;;;5094259;28;20020;-75
2021/09/05 03:21:03;;;;;;;6.10;4.85;;;;;;;;;;5094049;28;20505;-75
2021/09/05 03:23:29;;;;;;;7.00;5.30;;;;;;;;;;5094147;28;20085;-75
2021/09/05 03:25:55;;;;;;;9.40;6.35;;;;;;;;;;5094223;28;20058;-75
2021/09/05 03:28:21;;;;;;;12.02;9.07;;;;;;;;;;5093939;28;20020;-75
2021/09/05 03:30:48;;;;;;;11.80;8.20;;;;;;;;;;5094074;28;20471;-75
2021/09/05 03:33:14;;;;;;;15.23;8.70;;;;;;;;;;5093874;28;20429;-75
2021/09/05 03:35:40;;;;;;;9.57;5.90;;;;;;;;;;5093863;28;20502;-75
2021/09/05 03:38:06;;;;;;;6.45;5.18;;;;;;;;;;5093654;28;20427;-74
2021/09/05 03:40:33;;;;;;;5.65;4.85;;;;;;;;;;5093805;28;20034;-74
2021/09/05 03:42:59;;;;;;;5.60;5.10;;;;;;;;;;5093907;28;20137;-74
2021/09/05 03:45:25;;;;;;;5.25;4.63;;;;;;;;;;5093942;28;20499;-75
2021/09/05 03:47:52;;;;;;;5.45;4.95;;;;;;;;;;5093988;28;20027;-75
2021/09/05 03:50:18;;;;;;;6.00;4.90;;;;;;;;;;5093833;28;20493;-74
2021/09/05 03:52:46;;;;;;;6.07;5.28;;;;;;;;;;5093603;28;20051;-76
2021/09/05 03:55:12;;;;;;;6.20;5.15;;;;;;;;;;5093633;28;20028;-74
2021/09/05 03:57:39;;;;;;;7.30;6.00;;;;;;;;;;5093626;28;20371;-75
2021/09/05 04:00:05;;;;;;;7.50;4.90;;;;;;;;;;5092915;28;20039;-75
2021/09/05 04:02:31;;;;;;;5.97;5.38;;;;;;;;;;5093648;28;20085;-75
2021/09/05 04:04:57;;;;;;;8.38;6.47;;;;;;;;;;5092337;28;20468;-75
2021/09/05 04:07:23;;;;;;;11.52;5.80;;;;;;;;;;5093482;28;20481;-75
2021/09/05 04:12:34;;;;;;;6.22;5.38;;;;;;;;;;5093613;28;20119;-74
2021/09/05 04:15:00;;;;;;;6.47;5.78;;;;;;;;;;5093428;28;20047;-75
2021/09/05 04:17:26;;;;;;;7.22;4.93;;;;;;;;;;5093517;28;20107;-75
2021/09/05 04:19:52;;;;;;;9.13;5.55;;;;;;;;;;5093315;28;20035;-75
2021/09/05 04:22:18;;;;;;;8.48;5.40;;;;;;;;;;5093542;28;20037;-75
2021/09/05 04:24:45;;;;;;;7.03;5.13;;;;;;;;;;5093896;28;20020;-74
2021/09/05 04:27:11;;;;;;;8.68;5.60;;;;;;;;;;5093462;28;20032;-74
2021/09/05 04:29:37;;;;;;;12.88;9.50;;;;;;;;;;5091940;28;20036;-73
2021/09/05 04:32:03;;;;;;;8.40;6.18;;;;;;;;;;5093383;28;20107;-73
2021/09/05 04:34:29;;;;;;;6.13;4.97;;;;;;;;;;5093233;28;20543;-73
2021/09/05 04:36:55;;;;;;;5.40;4.72;;;;;;;;;;5093247;28;20483;-73
2021/09/05 04:39:21;;;;;;;6.32;4.10;;;;;;;;;;5093021;28;20096;-73
2021/09/05 04:41:47;;;;;;;5.72;4.82;;;;;;;;;;5093287;28;20047;-73
2021/09/05 04:44:13;;;;;;;4.43;3.88;;;;;;;;;;5093134;28;20024;-74
2021/09/05 04:46:40;;;;;;;6.45;4.50;;;;;;;;;;5093106;28;20034;-75
2021/09/05 04:49:06;;;;;;;5.72;4.63;;;;;;;;;;5093060;28;20532;-75
2021/09/05 04:51:32;;;;;;;4.93;4.43;;;;;;;;;;5093229;28;20039;-75
2021/09/05 04:53:58;;;;;;;8.90;6.53;;;;;;;;;;5093048;28;20375;-75
2021/09/05 04:56:24;;;;;;;7.50;6.70;;;;;;;;;;5093202;28;20375;-75
2021/09/05 04:58:50;;;;;;;7.72;4.90;;;;;;;;;;5093035;28;20028;-75
2021/09/05 05:01:16;;;;;;;8.63;5.38;;;;;;;;;;5092891;28;20523;-74
2021/09/05 05:03:42;;;;;;;9.15;5.70;;;;;;;;;;5092917;28;20075;-74
2021/09/05 05:06:09;;;;;;;7.25;5.30;;;;;;;;;;5093119;28;20447;-76
2021/09/05 05:08:35;;;;;;;7.82;4.63;;;;;;;;;;5092532;28;20422;-75
2021/09/05 05:11:01;;;;;;;4.82;4.03;;;;;;;;;;5093857;28;20093;-75
2021/09/05 05:13:28;;;;;;;4.95;4.07;;;;;;;;;;5096657;28;20032;-76
2021/09/05 05:15:55;;;;;;;4.53;3.90;;;;;;;;;;5095295;28;20356;-74
2021/09/05 05:18:41;;;;;;;6.57;4.78;;;;;;;;;;5096609;28;20024;-76
2021/09/05 05:21:08;;;;;;;46.17;34.17;;;;;;;;;;5095123;28;20429;-75
2021/09/05 05:23:34;;;;;;;11.02;9.70;;;;;;;;;;5096283;28;20066;-76
2021/09/05 05:26:00;;;;;;;15.63;11.18;;;;;;;;;;5096413;28;20032;-75
2021/09/05 05:28:27;;;;;;;5.88;4.20;;;;;;;;;;5096507;28;20366;-75
2021/09/05 05:30:53;;;;;;;9.50;8.05;;;;;;;;;;5096373;28;20383;-76
2021/09/05 05:33:19;;;;;;;12.07;9.77;;;;;;;;;;5096410;28;20028;-74
2021/09/05 05:35:45;;;;;;;10.55;7.90;;;;;;;;;;5096170;28;20475;-75
2021/09/05 05:38:11;;;;;;;16.45;14.45;;;;;;;;;;5096115;28;20062;-75
2021/09/05 05:40:37;;;;;;;7.35;6.63;;;;;;;;;;5096064;28;20422;-74
2021/09/05 05:43:04;;;;;;;9.00;7.50;;;;;;;;;;5096092;28;20028;-76
2021/09/05 05:45:30;;;;;;;11.35;7.03;;;;;;;;;;5095922;28;20107;-75
2021/09/05 05:47:56;;;;;;;7.80;6.15;;;;;;;;;;5095946;28;20093;-74
2021/09/05 05:50:24;;;;;;;7.53;6.28;;;;;;;;;;5095919;28;20028;-75
2021/09/05 05:52:51;;;;;;;16.98;11.70;;;;;;;;;;5096022;28;20036;-75
2021/09/05 05:55:17;;;;;;;16.00;14.50;;;;;;;;;;5095875;28;20035;-75
2021/09/05 05:57:44;;;;;;;12.18;10.95;;;;;;;;;;5095769;28;20084;-74
2021/09/05 06:00:10;;;;;;;10.80;9.80;;;;;;;;;;5095642;28;20084;-74
2021/09/05 06:02:36;;;;;;;10.05;9.02;;;;;;;;;;5095734;28;20044;-75
2021/09/05 06:05:03;;;;;;;7.95;7.13;;;;;;;;;;5095846;28;20051;-76
2021/09/05 06:07:29;;;;;;;12.75;11.40;;;;;;;;;;5095585;28;20031;-75
2021/09/05 06:09:55;;;;;;;13.85;12.48;;;;;;;;;;5095703;28;20024;-75
2021/09/05 06:12:21;;;;;;;24.98;22.45;;;;;;;;;;5095524;28;20040;-75
2021/09/05 06:14:48;;;;;;;25.27;22.77;;;;;;;;;;5095544;28;20028;-75
2021/09/05 06:17:14;;;;;;;13.00;11.60;;;;;;;;;;5095379;28;20051;-75
2021/09/05 06:19:40;;;;;;;8.60;6.40;;;;;;;;;;5095358;28;20035;-76
2021/09/05 06:22:06;;;;;;;7.85;6.10;;;;;;;;;;5095027;28;20039;-77
2021/09/05 06:24:32;;;;;;;8.18;6.60;;;;;;;;;;5094892;28;20046;-76
2021/09/05 06:26:58;;;;;;;9.32;6.50;;;;;;;;;;5095308;28;20467;-76
2021/09/05 06:29:24;;;;;;;8.80;7.30;;;;;;;;;;5095206;28;20051;-75
2021/09/05 06:31:50;;;;;;;7.32;5.75;;;;;;;;;;5095270;28;20031;-75
2021/09/05 06:34:17;;;;;;;6.28;5.47;;;;;;;;;;5095143;28;20024;-75
2021/09/05 06:36:43;;;;;;;7.32;6.20;;;;;;;;;;5095025;28;20024;-75
2021/09/05 06:39:09;;;;;;;7.28;5.68;;;;;;;;;;5094943;28;20051;-75
2021/09/05 06:41:35;;;;;;;8.50;6.95;;;;;;;;;;5094821;28;20036;-75
2021/09/05 06:44:01;;;;;;;9.90;8.90;;;;;;;;;;5094853;28;20060;-75
2021/09/05 06:46:27;;;;;;;8.73;7.20;;;;;;;;;;5094908;28;20031;-76
2021/09/05 06:48:53;;;;;;;8.38;6.78;;;;;;;;;;5094848;28;20032;-75
2021/09/05 06:51:19;;;;;;;8.18;6.03;;;;;;;;;;5093504;28;20482;-75
2021/09/05 06:53:45;;;;;;;6.55;5.22;;;;;;;;;;5095280;28;20020;-74
2021/09/05 06:56:11;;;;;;;6.20;4.35;;;;;;;;;;5094683;28;20024;-75
2021/09/05 06:58:38;;;;;;;7.47;5.25;;;;;;;;;;5094875;28;20099;-75
2021/09/05 07:01:04;;;;;;;6.00;5.40;;;;;;;;;;5094708;28;20038;-75
2021/09/05 07:03:31;;;;;;;6.43;4.90;;;;;;;;;;5094655;28;20032;-75
2021/09/05 07:05:57;;;;;;;6.32;5.25;;;;;;;;;;5094536;28;20032;-76
2021/09/05 07:08:23;;;;;;;5.47;4.65;;;;;;;;;;5094429;28;20024;-75
2021/09/05 07:10:49;;;;;;;8.73;5.68;;;;;;;;;;5094409;28;20129;-75
2021/09/05 07:13:15;;;;;;;6.95;4.72;;;;;;;;;;5094364;28;20103;-75
2021/09/05 07:15:41;;;;;;;5.78;4.63;;;;;;;;;;5094321;28;20052;-76
2021/09/05 07:18:07;;;;;;;7.85;6.00;;;;;;;;;;5094286;28;20035;-75
2021/09/05 07:20:33;;;;;;;6.18;5.45;;;;;;;;;;5094091;28;20056;-75
2021/09/05 07:23:00;;;;;;;6.80;5.07;;;;;;;;;;5092871;28;20087;-75
2021/09/05 07:25:27;;;;;;;5.55;5.03;;;;;;;;;;5094116;28;20024;-75
2021/09/05 07:27:53;;;;;;;7.07;5.38;;;;;;;;;;5094282;28;20027;-75
2021/09/05 07:30:20;;;;;;;5.63;5.05;;;;;;;;;;5094048;28;20020;-75
2021/09/05 07:32:46;;;;;;;6.63;5.50;;;;;;;;;;5094123;28;20074;-75
2021/09/05 07:35:12;;;;;;;6.57;5.25;;;;;;;;;;5093070;28;20039;-75
2021/09/05 07:37:38;;;;;;;4.88;4.05;;;;;;;;;;5093958;28;20099;-75
2021/09/05 07:40:06;;;;;;;7.60;5.72;;;;;;;;;;5093813;28;20044;-75
2021/09/05 07:42:32;;;;;;;5.88;5.20;;;;;;;;;;5093968;28;20039;-75
2021/09/05 07:44:59;;;;;;;7.65;5.22;;;;;;;;;;5093917;28;20020;-75
2021/09/05 07:47:25;;;;;;;7.55;5.28;;;;;;;;;;5093737;28;20024;-75
2021/09/05 07:49:52;;;;;;;6.18;5.53;;;;;;;;;;5093787;28;20032;-75
2021/09/05 07:52:18;;;;;;;8.63;5.45;;;;;;;;;;5093965;28;20023;-75
2021/09/05 07:54:44;;;;;;;6.10;5.50;;;;;;;;;;5093864;28;20035;-75
2021/09/05 07:57:10;;;;;;;6.50;5.53;;;;;;;;;;5093582;28;20056;-75
2021/09/05 07:59:36;;;;;;;8.90;5.50;;;;;;;;;;5093518;28;20053;-75
2021/09/05 08:02:03;;;;;;;6.47;5.57;;;;;;;;;;5093625;28;20047;-75
2021/09/05 08:04:29;;;;;;;8.18;6.03;;;;;;;;;;5093537;28;20429;-75
2021/09/05 08:06:55;;;;;;;10.65;8.70;;;;;;;;;;5093575;28;20028;-75
2021/09/05 08:09:21;;;;;;;5.80;5.20;;;;;;;;;;5093595;28;20020;-75
2021/09/05 08:11:47;;;;;;;8.00;5.70;;;;;;;;;;5092337;28;20142;-75
2021/09/05 08:14:13;;;;;;;6.38;5.78;;;;;;;;;;5092421;28;20024;-75
2021/09/05 08:16:39;;;;;;;27.95;7.50;;;;;;;;;;5093384;28;20095;-75
2021/09/05 08:19:06;;;;;;;7.38;5.28;;;;;;;;;;5093411;28;20032;-75
2021/09/05 08:21:32;;;;;;;6.68;5.55;;;;;;;;;;5091873;28;20047;-75
2021/09/05 08:23:58;;;;;;;7.88;5.75;;;;;;;;;;5092777;28;20069;-75
2021/09/05 08:26:25;;;;;;;7.88;6.60;;;;;;;;;;5093386;28;20111;-75
2021/09/05 08:28:51;;;;;;;6.68;4.90;;;;;;;;;;5093402;28;20020;-75
2021/09/05 08:31:18;;;;;;;5.15;4.65;;;;;;;;;;5092012;28;20032;-75
2021/09/05 08:33:44;;;;;;;6.03;4.40;;;;;;;;;;5093147;28;20536;-76
2021/09/05 08:36:10;;;;;;;6.93;4.38;;;;;;;;;;5093268;28;20106;-75
2021/09/05 08:38:36;;;;;;;5.50;4.45;;;;;;;;;;5093012;28;20059;-75
2021/09/05 08:41:02;;;;;;;5.65;4.90;;;;;;;;;;5093105;28;20035;-76
2021/09/05 08:43:29;;;;;;;5.78;5.18;;;;;;;;;;5093218;28;20035;-76
2021/09/05 08:45:55;;;;;;;6.35;4.57;;;;;;;;;;5094084;28;20024;-76
2021/09/05 08:48:21;;;;;;;5.63;4.78;;;;;;;;;;5097101;28;20030;-76
2021/09/05 08:50:49;;;;;;;5.32;4.82;;;;;;;;;;5097439;28;20027;-76
2021/09/05 08:53:18;;;;;;;4.72;4.32;;;;;;;;;;5097034;28;20047;-76
2021/09/05 08:55:45;;;;;;;5.80;4.45;;;;;;;;;;5095575;28;20402;-76
2021/09/05 08:58:11;;;;;;;5.75;5.15;;;;;;;;;;5096881;28;20024;-76
2021/09/05 09:00:37;;;;;;;5.15;4.53;;;;;;;;;;5096803;28;20055;-75
2021/09/05 09:03:04;;;;;;;8.07;4.60;;;;;;;;;;5096811;28;20031;-75
2021/09/05 09:05:33;;;;;;;5.07;4.35;;;;;;;;;;5096892;28;20028;-75
2021/09/05 09:08:01;;;;;;;6.18;5.45;;;;;;;;;;5096783;28;20111;-75
2021/09/05 09:10:27;;;;;;;5.43;4.93;;;;;;;;;;5096847;28;20085;-76
2021/09/05 09:12:53;;;;;;;5.90;5.30;;;;;;;;;;5096802;28;20047;-75
2021/09/05 09:15:22;;;;;;;6.07;4.85;;;;;;;;;;5096780;28;20082;-75
2021/09/05 09:17:54;;;;;;;6.85;5.05;;;;;;;;;;5096616;28;20024;-75
2021/09/05 09:20:39;;;;;;;6.75;5.43;;;;;;;;;;5096703;28;20378;-75
2021/09/05 09:23:16;;;;;;;7.22;5.97;;;;;;;;;;5096422;28;20032;-76
2021/09/05 09:25:54;;;;;;;6.05;5.28;;;;;;;;;;5096431;28;20043;-75
2021/09/05 09:28:36;;;;;;;6.78;5.65;;;;;;;;;;5096547;28;20028;-76
2021/09/05 09:31:03;;;;;;;5.72;4.95;;;;;;;;;;5096480;28;20467;-75
2021/09/05 09:33:30;;;;;;;5.45;4.95;;;;;;;;;;5096464;28;20407;-74
2021/09/05 09:36:00;;;;;;;7.43;5.10;;;;;;;;;;5096216;28;20051;-75
2021/09/05 09:38:26;;;;;;;5.22;4.28;;;;;;;;;;5096221;28;20055;-74
2021/09/05 09:41:16;;;;;;;5.72;5.20;;;;;;;;;;5096115;28;20081;-75
2021/09/05 09:43:48;;;;;;;5.57;5.07;;;;;;;;;;5085521;28;20044;-74
2021/09/05 09:46:16;;;;;;;4.70;4.30;;;;;;;;;;5096048;28;20027;-75
2021/09/05 09:48:53;;;;;;;5.60;5.05;;;;;;;;;;5095780;28;20125;-75
2021/09/05 09:51:21;;;;;;;5.05;4.45;;;;;;;;;;5095973;28;20032;-75
2021/09/05 09:53:47;;;;;;;5.43;4.93;;;;;;;;;;5094519;28;20088;-75
2021/09/05 09:56:16;;;;;;;5.10;4.60;;;;;;;;;;5096370;28;20020;-75
2021/09/05 09:58:43;;;;;;;6.20;5.20;;;;;;;;;;5094748;28;20115;-75
2021/09/05 10:01:10;;;;;;;6.25;4.50;;;;;;;;;;5095478;28;20046;-75
2021/09/05 10:03:37;;;;;;;5.55;5.05;;;;;;;;;;5095791;28;20459;-75
2021/09/05 10:06:03;;;;;;;5.63;5.00;;;;;;;;;;5095616;28;20020;-75
2021/09/05 10:08:34;;;;;;;6.40;5.30;;;;;;;;;;5095688;28;20047;-75
2021/09/05 10:11:00;;;;;;;4.72;4.30;;;;;;;;;;5095758;28;20020;-75
2021/09/05 10:13:29;;;;;;;6.15;4.43;;;;;;;;;;5095611;28;20509;-75
2021/09/05 10:15:56;;;;;;;5.97;5.38;;;;;;;;;;5095360;28;20055;-76
2021/09/05 10:18:22;;;;;;;5.57;5.00;;;;;;;;;;5094185;28;20026;-75
2021/09/05 10:20:49;;;;;;;7.55;5.43;;;;;;;;;;5095353;28;20438;-75
2021/09/05 10:23:24;;;;;;;7.03;5.72;;;;;;;;;;5095265;28;20032;-75
2021/09/05 10:26:09;;;;;;;5.50;4.70;;;;;;;;;;5095318;28;20478;-75
2021/09/05 10:28:37;;;;;;;5.95;4.80;;;;;;;;;;5095071;28;20020;-75
2021/09/05 10:31:03;;;;;;;6.10;4.90;;;;;;;;;;5095162;28;20024;-75
2021/09/05 10:33:34;;;;;;;6.70;5.30;;;;;;;;;;5095198;28;20020;-76
2021/09/05 10:36:07;;;;;;;6.88;5.40;;;;;;;;;;5095220;28;20110;-75
2021/09/05 10:38:34;;;;;;;6.03;5.32;;;;;;;;;;5094851;28;20453;-76
2021/09/05 10:41:01;;;;;;;5.47;4.90;;;;;;;;;;5094908;28;20062;-75
2021/09/05 10:43:46;;;;;;;6.32;5.00;;;;;;;;;;5095031;28;20020;-76
2021/09/05 10:46:13;;;;;;;6.18;4.80;;;;;;;;;;5094976;28;20108;-75
2021/09/05 10:48:44;;;;;;;4.72;4.22;;;;;;;;;;5094862;28;20037;-75
2021/09/05 10:51:29;;;;;;;6.25;5.13;;;;;;;;;;5094839;28;20051;-75
2021/09/05 10:53:58;;;;;;;15.10;13.55;;;;;;;;;;5094725;28;20020;-75
2021/09/05 10:56:25;;;;;;;5.93;5.05;;;;;;;;;;5094806;28;20064;-75
2021/09/05 10:59:03;;;;;;;6.30;5.47;;;;;;;;;;5094754;28;20023;-76
2021/09/05 11:01:34;;;;;;;6.43;5.50;;;;;;;;;;5094458;28;20383;-75
2021/09/05 11:04:19;;;;;;;5.93;5.28;;;;;;;;;;5094487;28;20050;-74
2021/09/05 11:06:50;;;;;;;6.55;5.85;;;;;;;;;;5094464;28;20060;-76
2021/09/05 11:09:20;;;;;;;10.93;9.30;;;;;;;;;;5094206;28;20032;-74
2021/09/05 11:12:11;;;;;;;4.50;4.10;;;;;;;;;;5094446;28;20016;-75
2021/09/05 11:14:38;;;;;;;4.55;4.03;;;;;;;;;;5094384;28;20023;-75
2021/09/05 11:17:17;;;;;;;5.95;4.95;;;;;;;;;;5094408;28;20352;-75
2021/09/05 11:20:02;;;;;;;5.07;4.63;;;;;;;;;;5094137;28;20391;-75
2021/09/05 11:22:33;;;;;;;5.82;4.28;;;;;;;;;;5094196;28;20043;-75
2021/09/05 11:25:17;;;;;;;5.85;5.30;;;;;;;;;;5094083;28;20414;-74
2021/09/05 11:27:57;;;;;;;5.13;4.63;;;;;;;;;;5094106;28;20028;-74
2021/09/05 11:30:34;;;;;;;5.25;4.60;;;;;;;;;;5094269;28;20023;-74
2021/09/05 11:33:10;;;;;;;5.40;4.85;;;;;;;;;;5093953;28;20043;-75
2021/09/05 11:35:57;;;;;;;8.30;6.50;;;;;;;;;;5094045;28;20024;-74
2021/09/05 11:38:23;;;;;;;5.78;5.28;;;;;;;;;;5093581;28;20387;-74
2021/09/05 11:40:54;;;;;;;4.38;3.97;;;;;;;;;;5092510;28;20044;-75
2021/09/05 11:43:29;;;;;;;5.00;4.50;;;;;;;;;;5093882;28;20084;-75
2021/09/05 11:45:55;;;;;;;4.82;3.95;;;;;;;;;;5093800;28;20024;-76
2021/09/05 11:48:26;;;;;;;4.65;4.10;;;;;;;;;;5094033;28;20027;-75
2021/09/05 11:50:52;;;;;;;7.05;4.40;;;;;;;;;;5093762;28;20033;-75
2021/09/05 11:53:19;;;;;;;4.70;4.18;;;;;;;;;;5093956;28;20059;-74
2021/09/05 11:55:54;;;;;;;5.70;4.43;;;;;;;;;;5093631;28;20020;-74
2021/09/05 11:58:21;;;;;;;5.28;4.28;;;;;;;;;;5093699;28;20077;-75
2021/09/05 12:00:53;;;;;;;4.93;4.43;;;;;;;;;;5093464;28;20542;-74
2021/09/05 12:03:23;;;;;;;5.72;4.38;;;;;;;;;;5093680;28;20024;-75
2021/09/05 12:05:49;;;;;;;6.20;5.05;;;;;;;;;;5093845;28;20027;-76
2021/09/05 12:08:18;;;;;;;5.85;4.40;;;;;;;;;;5093619;28;20103;-76
2021/09/05 12:10:46;;;;;;;5.50;5.00;;;;;;;;;;5093432;28;20035;-74
2021/09/05 12:13:13;;;;;;;5.53;4.50;;;;;;;;;;5093542;28;20374;-74
2021/09/05 12:15:43;;;;;;;5.00;4.43;;;;;;;;;;5093432;28;20047;-75
2021/09/05 12:18:23;;;;;;;4.85;4.38;;;;;;;;;;5093278;28;20023;-75
2021/09/05 12:20:50;;;;;;;5.38;4.85;;;;;;;;;;5093913;28;20032;-74
2021/09/05 12:23:21;;;;;;;4.75;4.35;;;;;;;;;;5097624;28;20020;-75
2021/09/05 12:25:47;;;;;;;7.93;6.53;;;;;;;;;;5097384;28;20467;-74
2021/09/05 12:28:18;;;;;;;5.68;5.10;;;;;;;;;;5097512;28;20024;-75
2021/09/05 12:31:00;;;;;;;7.38;5.38;;;;;;;;;;5097675;28;20115;-75
2021/09/05 12:33:26;;;;;;;9.95;4.95;;;;;;;;;;5097560;28;20032;-75
2021/09/05 12:35:54;;;;;;;5.85;4.97;;;;;;;;;;5097468;28;20044;-75
2021/09/05 12:38:20;;;;;;;5.13;4.72;;;;;;;;;;5097259;28;20411;-75
2021/09/05 12:40:46;;;;;;;5.50;5.00;;;;;;;;;;5097307;28;20029;-74
2021/09/05 12:43:14;;;;;;;4.57;4.18;;;;;;;;;;5097388;28;20060;-74
2021/09/05 12:45:50;;;;;;;5.32;4.18;;;;;;;;;;5097039;28;20089;-75
2021/09/05 12:48:18;;;;;;;7.43;4.70;;;;;;;;;;5097193;28;20051;-74
2021/09/05 12:50:44;;;;;;;5.18;4.68;;;;;;;;;;5097097;28;20024;-74
2021/09/05 12:53:11;;;;;;;5.50;4.88;;;;;;;;;;5097045;28;20024;-75
2021/09/05 12:55:37;;;;;;;6.85;5.80;;;;;;;;;;5096400;28;20028;-74
2021/09/05 12:58:03;;;;;;;7.63;5.75;;;;;;;;;;5096986;28;20429;-75
2021/09/05 13:00:31;;;;;;;4.88;4.47;;;;;;;;;;5096940;28;20489;-76
2021/09/05 13:02:57;;;;;;;6.75;4.70;;;;;;;;;;5096904;28;20089;-76
2021/09/05 13:05:23;;;;;;;6.18;4.43;;;;;;;;;;5096881;28;20054;-75
2021/09/05 13:07:49;;;;;;;7.47;4.80;;;;;;;;;;5096956;28;20104;-74
2021/09/05 13:10:15;;;;;;;5.47;4.45;;;;;;;;;;5096733;28;20034;-74
2021/09/05 13:12:41;;;;;;;6.53;4.63;;;;;;;;;;5096826;28;20028;-75
2021/09/05 13:15:07;;;;;;;5.72;4.82;;;;;;;;;;5096705;28;20459;-74
2021/09/05 13:17:36;;;;;;;8.35;4.70;;;;;;;;;;5096546;28;20020;-74
2021/09/05 13:20:02;;;;;;;5.68;4.63;;;;;;;;;;5096671;28;20111;-74
2021/09/05 13:22:28;;;;;;;5.35;3.88;;;;;;;;;;5096503;28;20087;-75
2021/09/05 13:24:56;;;;;;;4.82;3.53;;;;;;;;;;5096552;28;20028;-75
2021/09/05 13:27:22;;;;;;;4.47;3.90;;;;;;;;;;5096571;28;20039;-75
2021/09/05 13:29:48;;;;;;;6.00;4.35;;;;;;;;;;5096275;28;20028;-75
2021/09/05 13:32:15;;;;;;;7.65;4.65;;;;;;;;;;5096215;28;20039;-75
2021/09/05 13:34:41;;;;;;;4.75;4.10;;;;;;;;;;5096238;28;20036;-75
2021/09/05 13:37:07;;;;;;;5.63;4.68;;;;;;;;;;5096338;28;20421;-76
2021/09/05 13:39:33;;;;;;;5.05;3.95;;;;;;;;;;5094726;28;20390;-75
2021/09/05 13:41:59;;;;;;;7.90;5.25;;;;;;;;;;5096180;28;20093;-78
2021/09/05 13:44:25;;;;;;;4.70;4.18;;;;;;;;;;5096344;28;20093;-75
2021/09/05 13:46:51;;;;;;;6.05;4.00;;;;;;;;;;5096293;28;20062;-75
2021/09/05 13:49:17;;;;;;;4.20;3.70;;;;;;;;;;5096242;28;20107;-74
2021/09/05 13:51:43;;;;;;;4.65;3.60;;;;;;;;;;5096084;28;20024;-74
2021/09/05 13:54:09;;;;;;;5.28;4.25;;;;;;;;;;5096056;28;20024;-75
2021/09/05 13:56:36;;;;;;;6.72;3.80;;;;;;;;;;5095855;28;20059;-74
2021/09/05 13:59:02;;;;;;;5.63;3.97;;;;;;;;;;5096089;28;20089;-74
2021/09/05 14:01:28;;;;;;;5.45;4.13;;;;;;;;;;5095690;28;20036;-75
2021/09/05 14:03:54;;;;;;;6.15;4.30;;;;;;;;;;5095888;28;20055;-75
2021/09/05 14:06:20;;;;;;;5.97;5.00;;;;;;;;;;5095934;28;20097;-76
2021/09/05 14:08:46;;;;;;;4.97;4.28;;;;;;;;;;5094349;28;20119;-74
2021/09/05 14:11:13;;;;;;;5.15;4.18;;;;;;;;;;5095682;28;20024;-74
2021/09/05 14:13:39;;;;;;;5.75;4.03;;;;;;;;;;5095826;28;20043;-75
2021/09/05 14:16:05;;;;;;;4.20;3.80;;;;;;;;;;5095498;28;20035;-76
2021/09/05 14:18:31;;;;;;;4.30;3.90;;;;;;;;;;5095708;28;20367;-75
2021/09/05 14:20:57;;;;;;;4.50;3.80;;;;;;;;;;5095342;28;20028;-75
2021/09/05 14:23:23;;;;;;;4.38;3.95;;;;;;;;;;5095421;28;20028;-75
2021/09/05 14:25:49;;;;;;;5.68;3.88;;;;;;;;;;5095297;28;20471;-76
2021/09/05 14:28:23;;;;;;;4.90;3.67;;;;;;;;;;5095247;28;20356;-74
2021/09/05 14:55:10;;;;;;;4.45;3.78;;;;;;;;;;5094884;28;20387;-75
2021/09/05 14:57:36;;;;;;;6.50;5.20;;;;;;;;;;5094775;28;20030;-75
2021/09/05 15:00:04;;;;;;;5.82;4.20;;;;;;;;;;5094699;28;20427;-73
2021/09/05 15:02:40;;;;;;;4.55;4.15;;;;;;;;;;5094368;28;20125;-75
2021/09/05 15:13:21;;;;;;;5.38;4.50;;;;;;;;;;5074209;28;20525;-74
2021/09/05 15:15:47;;;;;;;5.90;5.30;;;;;;;;;;5074124;28;20024;-74
2021/09/05 15:18:13;;;;;;;6.65;4.57;;;;;;;;;;5074154;28;20459;-73